University Park, Florida
Current Conditions -  °F | °C
As of 4:53 PM on Friday 19 Dec 2014 (Local Time) from KSRQ Reporting Station
Clear Clear  
Wind Chill: 69°   Ceiling: Unl
Heat Index: 69°   Visibility: 10mi
Dew Point: 55°   Wind: 3mph
Humidity: 61%   Direction: 230°SW
Pressure: 30.03"   Gusts: NA
Location:  27.3998°N, 82.4742°W
Report Text: KSRQ 192153Z AUTO 23003KT 10SM CLR 21/13 A3003 RMK AO2 SLP167 T02060128
Loading
Personal Weather Stations






























Interactive Weather Map New forecast layout! Learn more

10-Day Weather Forecast

Advertisements
Track Severe Weather on mobile